Station: Wyndham Airport  

  Atmospheric Gas Attenuation - ITU Rec 676-11   ----------------- dB/100km -----------------
Date Time Temp RH % AH g/m3 Dew Point Wind Direction Speed kph Gust kph Barometer mB Rainfall Since 9am 24GHz 47GHz 76GHz 122GHz 134GHz 241GHz
08/05 11:00 27.4 32 8.42 9.3 26 33 1016 0 18.6 22.2 33.2 86.9 81.1 279.6
08/05 10:50 27.1 32 8.28 9 32 35 1016.1 0 18.3 22.0 32.8 86.0 79.9 275.2
08/05 10:40 26.9 33 8.45 9.3 28 33 1016.1 0 18.7 22.3 33.5 87.7 82.0 282.5
08/05 10:30 26.9 33 8.45 9.3 28 37 1016.2 0 18.7 22.3 33.5 87.7 82.0 282.5
08/05 10:20 26.8 33 8.4 9.2 28 35 1016.2 0 18.6 22.3 33.3 87.4 81.5 280.9
08/05 10:10 26.7 33 8.35 9.1 26 30 1016.1 0 18.5 22.2 33.2 87.0 81.1 279.3
08/05 10:00 26.3 33 8.17 8.8 30 39 1016.1 0 18.1 22.1 32.8 85.8 79.5 273.7
08/05 09:50 26.1 33 8.08 8.6 30 35 1016.1 0 17.9 22.0 32.5 85.2 78.7 270.8
08/05 09:40 26.1 35 8.57 9.4 30 37 1016 0 18.9 22.7 34.2 89.6 84.1 289.9
08/05 09:30 25.6 36 8.57 9.4 30 41 1015.9 0 19.0 22.8 34.4 90.2 84.6 291.7
08/05 09:20 25.6 36 8.57 9.4 30 35 1015.9 0 19.0 22.8 34.4 90.2 84.6 291.7
08/05 09:10 25.2 39 9.08 10.3 15 17 1016 0 20.1 23.6 36.3 95.3 90.9 313.5
08/05 09:00 24.6 41 9.23 10.5 11 17 1016 0 20.4 24.0 37.1 97.5 93.3 322.0
08/05 08:50 23.7 46 9.84 11.4 7 9 1016 0 21.7 25.1 39.8 104.5 101.7 351.1
08/05 08:40 23.1 44 9.09 10.2 9 11 1015.9 0 20.2 24.2 37.3 97.9 93.4 322.2
08/05 08:30 22.8 45 9.14 10.3 6 9 1015.9 0 20.3 24.3 37.6 98.8 94.4 325.4
08/05 08:20 22 44 8.54 9.2 6 7 1015.9 0 19.1 23.7 35.8 93.9 88.2 303.6
08/05 08:10 21.7 46 8.77 9.6 6 7 1015.8 0 19.6 24.1 36.8 96.5 91.2 314.3
08/05 08:00 20.7 52 9.36 10.5 6 7 1015.7 0 20.9 25.2 39.4 103.6 99.6 343.5
08/05 07:50 18.9 56 9.07 9.9 0 0 1015.6 0 20.3 25.3 39.2 102.9 98.2 338.5
08/05 07:40 18.1 59 9.12 10 6 6 1015.5 0 20.5 25.6 39.8 104.5 99.9 344.1
08/05 07:30 17.5 60 8.94 9.7 6 7 1015.4 0 20.1 25.5 39.4 103.4 98.3 338.7
08/05 07:20 17.7 57 8.6 9.1 0 6 1015.3 0 19.4 24.9 38.0 99.6 93.8 322.8
08/05 07:10 18.4 55 8.65 9.2 4 7 1015.2 0 19.5 24.7 37.8 99.3 93.6 322.1
08/05 07:00 18.1 55 8.5 8.9 2 7 1015.1 0 19.2 24.6 37.4 98.1 92.0 316.7
08/05 06:50 18.4 53 8.34 8.7 7 7 1015.1 0 18.8 24.3 36.7 96.1 89.7 308.6
08/05 06:40 19 52 8.47 8.9 6 7 1014.9 0 19.1 24.3 36.9 96.7 90.6 311.8
08/05 06:30 18.1 56 8.65 9.2 6 7 1014.8 0 19.5 24.8 38.0 99.6 93.9 323.2
08/05 06:20 18.5 54 8.54 9 0 0 1014.8 0 19.2 24.5 37.4 98.0 92.0 316.8
08/05 06:10 18.1 55 8.5 8.9 0 4 1014.7 0 19.2 24.6 37.4 98.1 92.0 316.6
08/05 06:00 18.6 54 8.59 9.1 4 7 1014.7 0 19.3 24.6 37.5 98.4 92.5 318.5
08/05 05:50 18.5 54 8.54 9 7 7 1014.6 0 19.2 24.5 37.4 98.0 92.0 316.8
08/05 05:40 18.6 55 8.75 9.4 7 7 1014.5 0 19.7 24.8 38.1 100.0 94.5 325.5
08/05 05:30 18.4 55 8.65 9.2 7 9 1014.5 0 19.5 24.7 37.8 99.2 93.5 321.9
08/05 05:20 19 54 8.8 9.5 7 9 1014.4 0 19.8 24.8 38.1 100.0 94.6 326.0
08/05 05:10 18.8 54 8.7 9.3 7 9 1014.5 0 19.6 24.7 37.8 99.2 93.6 322.5
08/05 05:00 18.7 54 8.64 9.2 9 13 1014.5 0 19.4 24.6 37.6 98.7 93.0 320.3
08/05 04:50 18.9 53 8.59 9.1 11 13 1014.5 0 19.3 24.5 37.4 98.0 92.2 317.3
08/05 04:40 18.9 54 8.75 9.4 7 9 1014.4 0 19.7 24.7 38.0 99.6 94.1 324.2
08/05 04:30 18.7 54 8.64 9.2 9 11 1014.4 0 19.4 24.6 37.6 98.7 93.0 320.2
08/05 04:20 18.9 54 8.75 9.4 7 9 1014.5 0 19.7 24.7 38.0 99.6 94.1 324.2
08/05 04:10 19.2 54 8.9 9.7 7 9 1014.5 0 20.0 24.9 38.4 100.7 95.6 329.5
08/05 04:00 18.4 56 8.81 9.5 9 11 1014.6 0 19.8 25.0 38.4 100.8 95.5 328.9
08/05 03:50 18.6 54 8.59 9.1 9 9 1014.6 0 19.3 24.6 37.5 98.4 92.5 318.5
08/05 03:40 19 53 8.64 9.2 9 9 1014.6 0 19.4 24.5 37.5 98.4 92.7 319.1
08/05 03:30 18.6 54 8.59 9.1 9 11 1014.7 0 19.3 24.6 37.5 98.4 92.5 318.5
08/05 03:20 18.3 55 8.6 9.1 9 11 1014.8 0 19.4 24.7 37.7 98.8 93.0 320.2
08/05 03:10 18.1 56 8.65 9.2 9 9 1014.8 0 19.5 24.8 38.0 99.6 93.9 323.2
08/05 03:00 18.5 54 8.54 9 9 9 1014.8 0 19.2 24.5 37.4 98.0 92.0 316.8
08/05 02:50 19.4 51 8.51 9 9 9 1014.9 0 19.1 24.3 36.8 96.6 90.6 312.0
08/05 02:40 20 49 8.47 9 11 11 1014.9 0 19.0 24.0 36.4 95.5 89.5 308.0
08/05 02:30 19.8 50 8.54 9.1 9 11 1015 0 19.2 24.2 36.8 96.4 90.6 311.8
08/05 02:20 19.3 52 8.62 9.2 9 11 1015.1 0 19.4 24.5 37.3 97.9 92.1 317.2
08/05 02:10 19.1 53 8.69 9.3 11 11 1015.1 0 19.5 24.6 37.7 98.8 93.2 321.0
08/05 02:00 20 49 8.47 9 9 11 1015.2 0 19.0 24.0 36.4 95.5 89.5 308.1
08/05 01:50 20.2 49 8.57 9.2 9 11 1015.3 0 19.2 24.1 36.7 96.3 90.5 311.6
08/05 01:40 19.8 51 8.71 9.4 9 11 1015.3 0 19.5 24.5 37.4 98.2 92.7 319.1
08/05 01:30 19.7 52 8.83 9.6 11 11 1015.4 0 19.8 24.7 37.9 99.5 94.2 324.7
08/05 01:20 19.8 52 8.88 9.7 11 11 1015.4 0 19.9 24.7 38.1 99.9 94.7 326.4
08/05 01:10 19.6 55 9.28 10.3 11 11 1015.6 0 20.7 25.4 39.7 104.2 100.0 344.7
08/05 01:00 20 57 9.85 11.2 13 15 1015.6 0 21.9 26.2 41.7 109.5 106.6 368.1
08/05 00:50 20.1 61 10.6 12.3 15 15 1015.6 0 23.5 27.3 44.5 117.1 116.1 401.3
08/05 00:40 20.1 62 10.78 12.6 13 13 1015.7 0 23.9 27.6 45.3 119.1 118.5 409.5
08/05 00:30 19.5 60 10.07 11.5 11 11 1015.7 0 22.4 26.7 42.8 112.5 110.1 380.3
08/05 00:20 19.5 58 9.73 11 11 11 1015.7 0 21.7 26.1 41.5 108.9 105.8 365.1
08/05 00:10 19.5 57 9.57 10.8 11 11 1015.7 0 21.4 25.9 40.8 107.3 103.8 358.0
08/05 00:00 19.4 57 9.51 10.7 11 13 1015.6 0 21.2 25.8 40.7 106.8 103.1 355.7
07/05 23:50 19.6 57 9.62 10.9 11 11 1015.6 0 21.5 25.9 41.0 107.6 104.3 359.7
07/05 23:40 19.7 59 10.02 11.5 9 11 1015.7 0 22.3 26.5 42.5 111.6 109.2 377.1
07/05 23:30 19.6 61 10.3 11.9 11 11 1015.6 0 22.9 27.0 43.6 114.7 113.0 390.2
07/05 23:20 20 60 10.37 12 11 11 1015.6 0 23.0 27.0 43.7 114.9 113.3 391.4
07/05 23:10 20.2 61 10.66 12.4 11 13 1015.6 0 23.6 27.4 44.7 117.6 116.8 403.5
07/05 23:00 20.6 59 10.56 12.3 11 11 1015.6 0 23.4 27.1 44.1 116.0 114.9 397.0
07/05 22:50 21.4 52 9.75 11.1 11 11 1015.6 0 21.6 25.6 40.6 106.5 103.5 357.3
07/05 22:40 21.9 48 9.26 10.4 13 13 1015.7 0 20.6 24.7 38.5 101.0 96.9 334.1
07/05 22:30 22 47 9.12 10.2 13 15 1015.7 0 20.3 24.5 37.9 99.5 95.1 327.8
07/05 22:20 22.2 46 9.03 10 13 13 1015.7 0 20.1 24.3 37.5 98.4 93.7 323.2
07/05 22:10 22.3 47 9.28 10.5 13 13 1015.7 0 20.6 24.7 38.4 100.7 96.6 333.3
07/05 22:00 23.1 43 8.89 9.8 13 15 1015.7 0 19.8 23.9 36.6 96.0 91.0 313.8
07/05 21:50 22.9 43 8.79 9.7 13 15 1015.7 0 19.6 23.8 36.3 95.3 90.1 310.5
07/05 21:40 23 43 8.84 9.8 11 13 1015.7 0 19.7 23.8 36.5 95.6 90.6 312.1
07/05 21:30 23.4 43 9.04 10.1 11 13 1015.7 0 20.1 24.0 37.0 97.1 92.5 318.8
07/05 21:20 23.3 45 9.41 10.7 11 11 1015.6 0 20.8 24.6 38.4 100.7 97.0 334.6
07/05 21:10 23.1 43 8.89 9.8 13 13 1015.4 0 19.8 23.9 36.6 96.0 91.0 313.7
07/05 21:00 23 43 8.84 9.8 9 11 1015.3 0 19.7 23.8 36.4 95.6 90.5 312.0
07/05 20:50 23.2 44 9.15 10.3 9 9 1015.1 0 20.3 24.2 37.5 98.3 93.9 324.0
07/05 20:40 23.2 41 8.52 9.2 9 9 1015 0 19.0 23.3 35.2 92.3 86.5 298.1
07/05 20:30 24.1 37 8.1 8.5 9 11 1014.9 0 18.1 22.5 33.4 87.4 80.8 278.0
07/05 20:20 25.1 36 8.33 9 9 11 1014.8 0 18.5 22.5 33.7 88.4 82.4 283.7
07/05 20:10 24.5 37 8.28 8.9 9 9 1014.7 0 18.4 22.6 33.8 88.6 82.4 283.7
07/05 20:00 24.2 38 8.36 9 9 9 1014.5 0 18.6 22.8 34.2 89.6 83.6 287.9
07/05 19:50 24.3 37 8.19 8.7 9 11 1014.4 0 18.2 22.5 33.6 88.0 81.6 280.8
07/05 19:40 24.8 35 7.97 8.3 9 11 1014.2 0 17.8 22.1 32.6 85.4 78.6 270.4
07/05 19:30 25.2 34 7.92 8.2 11 13 1014.2 0 17.6 21.9 32.3 84.5 77.7 267.2
07/05 19:20 25 36 8.29 8.9 11 13 1014.1 0 18.4 22.5 33.6 88.1 82.0 282.3
07/05 19:10 25.4 38 8.95 10.1 9 9 1014 0 19.8 23.3 35.7 93.7 89.0 307.0
07/05 19:00 26.4 33 8.22 8.8 13 17 1014 0 18.2 22.1 32.8 86.0 79.8 274.8
07/05 18:50 26.8 31 7.89 8.3 13 15 1013.9 0 17.5 21.5 31.6 82.6 75.8 260.8
07/05 18:40 27.3 31 8.11 8.7 15 17 1013.8 0 17.9 21.7 32.1 84.1 77.7 267.6
07/05 18:30 27.5 33 8.73 9.8 15 20 1013.7 0 19.2 22.5 34.1 89.3 84.3 290.6

Last Refresh: 08-May-2026 11:04:27

Bureau of Meteorology